Farmington, NM

9:52 AM MDT on October 02, 2014 (GMT -0600)
Butler and 23rd Street | Change Station
CLOSE
Current Station
Personal Weather Station
Location: Farmington, NM
Elevation: 5500 ft
Nearby Weather Stations
Active Advisory: Special Statement

Elev 5500 ft 36.75 °N, 108.20 °W | Updated 1 second ago

Clear
Clear
54.0 °F
Feels Like 54.0 °F
N
5.0
Wind Variable Wind from West
Gusts 10.0 mph

Today
High -- | Low -- °F
--% Chance of Precip.
Yesterday
High -- | Low -- °F
Precip. -- in
7:08 AM 6:54 PM
First Quarter, 60% visible
Pressure 30.19 in
Visibility 10.0 miles
Clouds Clear
Dew Point 30 °F
Humidity 39%
Rainfall 0.00 in
Snow Depth 2 in , 0 in , 0 in
UV 1 out of 12
Pollen 5.10 out of 12
Air Quality Not available.
Flu Activity Not available.
METAR KFMN 021453Z 26007KT 10SM CLR 08/M01 A3024 RMK AO2 SLP221 T00831006 53025

More Conditions Fewer Conditions

Pressure 30.19 in
Visibility 10.0 miles
Clouds Clear
Dew Point 30 °F
Humidity 39%
Rainfall 0.00 in
Snow Depth 2 in , 0 in , 0 in
UV 1 out of 12
Pollen 5.10 out of 12
Air Quality Not available.
Flu Activity Not available.
METAR KFMN 021453Z 26007KT 10SM CLR 08/M01 A3024 RMK AO2 SLP221 T00831006 53025

More Conditions Fewer Conditions

10-Day Weather Forecast

Almanac

Astronomy

Oct. 02, 2014 Rise Set
Actual Time 7:08 AM MDT 6:54 PM MDT
Civil Twilight 6:43 AM MDT 7:20 PM MDT
Nautical Twilight 6:13 AM MDT 7:50 PM MDT
Astronomical Twilight 5:42 AM MDT 8:20 PM MDT
Moon 2:55 PM MDT 12:37 AM MDT
Length of Visible Light 12h 37m
Length of Day
11h 45m
Tomorrow will be 2m 19s shorter.
First Quarter, 60% of the Moon is Illuminated
Today
First Quarter
Oct 8
Full
Oct 15
Last Quarter
Oct 23
New
Oct 30
First Quarter

Today's Extremes

State Highs State Lows

Community

WunderPhotos

Upload Photos

1,758,276 photos uploaded!

WunderBlogs® & News

Nearby

Snow Depth

Station Depth Elevation
Santa Fe 2 in 11445 ft
Elk Cabin 0 in 8210 ft
Frisco Divide 0 in 8000 ft
Wesner Springs 3 in 11120 ft
Silver Creek Divide 22 in 9000 ft

Earthquake Activity

City Distance Mag. Time & Date
No recent earthquake activity has been reported nearby.
Minimum magnitude displayed is 2.5.

Coastal Water Temperatures

Place Temperature
No Stations Reporting

Nearby Weather Stations